createdAt,value
2017-05-04T00:00:53.280Z,21.57
2017-05-04T00:01:53.922Z,21.62
2017-05-04T00:02:54.564Z,21.66
2017-05-04T00:03:55.206Z,21.58
2017-05-04T00:04:55.848Z,21.57
2017-05-04T00:05:56.491Z,21.62
2017-05-04T00:06:57.138Z,21.60
2017-05-04T00:07:57.977Z,21.58
2017-05-04T00:08:58.620Z,21.52
2017-05-04T00:09:59.262Z,21.55
2017-05-04T00:10:59.906Z,21.55
2017-05-04T00:12:00.550Z,21.58
2017-05-04T00:13:01.194Z,21.52
2017-05-04T00:14:01.838Z,21.55
2017-05-04T00:15:02.477Z,21.51
2017-05-04T00:16:03.118Z,21.51
2017-05-04T00:17:04.013Z,21.46
2017-05-04T00:18:04.656Z,21.54
2017-05-04T00:19:05.299Z,21.52
2017-05-04T00:20:05.941Z,21.50
2017-05-04T00:21:06.581Z,21.50
2017-05-04T00:22:07.222Z,21.51
2017-05-04T00:23:07.865Z,21.51
2017-05-04T00:24:08.509Z,21.51
2017-05-04T00:25:09.508Z,21.51
2017-05-04T00:26:10.149Z,21.48
2017-05-04T00:27:10.791Z,21.50
2017-05-04T00:28:11.433Z,21.45
2017-05-04T00:29:12.075Z,21.48
2017-05-04T00:30:12.712Z,21.48
2017-05-04T00:31:13.355Z,21.46
2017-05-04T00:32:13.998Z,21.43
2017-05-04T00:33:14.842Z,21.42
2017-05-04T00:34:15.486Z,21.43
2017-05-04T00:35:16.129Z,21.46
2017-05-04T00:36:16.773Z,21.40
2017-05-04T00:37:17.415Z,21.39
2017-05-04T00:38:18.060Z,21.45
2017-05-04T00:39:18.701Z,21.46
2017-05-04T00:40:19.344Z,21.42
2017-05-04T00:41:20.187Z,21.37
2017-05-04T00:42:20.833Z,21.42
2017-05-04T00:43:21.472Z,21.35
2017-05-04T00:44:22.115Z,21.30
2017-05-04T00:45:22.756Z,21.35
2017-05-04T00:46:23.400Z,21.37
2017-05-04T00:47:24.047Z,21.35
2017-05-04T00:48:24.682Z,21.36
2017-05-04T00:49:25.331Z,21.30
2017-05-04T00:50:26.117Z,21.33
2017-05-04T00:51:26.759Z,21.37
2017-05-04T00:52:27.401Z,21.42
2017-05-04T00:53:28.038Z,21.32
2017-05-04T00:54:28.680Z,21.29
2017-05-04T00:55:29.322Z,21.36
2017-05-04T00:56:29.965Z,21.36
2017-05-04T00:57:30.602Z,21.33
2017-05-04T00:58:31.449Z,21.33
2017-05-04T00:59:32.092Z,21.27
2017-05-04T01:00:32.733Z,21.37
2017-05-04T01:01:33.376Z,21.29
2017-05-04T01:02:34.017Z,21.36
2017-05-04T01:03:34.657Z,21.32
2017-05-04T01:04:35.299Z,21.30
2017-05-04T01:05:35.946Z,21.30
2017-05-04T01:06:36.791Z,21.35
2017-05-04T01:07:37.489Z,21.29
2017-05-04T01:08:38.133Z,21.29
2017-05-04T01:09:38.776Z,21.32
2017-05-04T01:10:39.420Z,21.27
2017-05-04T01:11:40.057Z,21.22
2017-05-04T01:12:40.699Z,21.35
2017-05-04T01:13:41.336Z,21.29
2017-05-04T01:14:42.179Z,21.22
2017-05-04T01:15:42.822Z,21.25
2017-05-04T01:16:43.461Z,21.27
2017-05-04T01:17:44.102Z,21.21
2017-05-04T01:18:44.745Z,21.29
2017-05-04T01:19:45.389Z,21.27
2017-05-04T01:20:46.035Z,21.14
2017-05-04T01:21:46.683Z,21.27
2017-05-04T01:22:47.470Z,21.14
2017-05-04T01:23:48.113Z,21.17
2017-05-04T01:24:48.757Z,21.17
2017-05-04T01:25:49.399Z,21.18
2017-05-04T01:26:50.040Z,21.20
2017-05-04T01:27:50.677Z,21.12
2017-05-04T01:28:51.323Z,21.18
2017-05-04T01:29:51.965Z,21.17
2017-05-04T01:30:52.608Z,21.17
2017-05-04T01:31:53.600Z,21.14
2017-05-04T01:32:54.238Z,21.14
2017-05-04T01:33:54.876Z,21.15
2017-05-04T01:34:55.518Z,21.11
2017-05-04T01:35:56.163Z,21.18
2017-05-04T01:36:56.811Z,21.06
2017-05-04T01:37:57.506Z,21.12
2017-05-04T01:38:58.149Z,21.11
2017-05-04T01:39:58.995Z,21.03
2017-05-04T01:40:59.637Z,21.07
2017-05-04T01:42:00.279Z,21.03
2017-05-04T01:43:00.923Z,21.03
2017-05-04T01:44:01.571Z,21.03
2017-05-04T01:45:02.204Z,21.06
2017-05-04T01:46:02.841Z,20.96
2017-05-04T01:47:03.485Z,21.03
2017-05-04T01:48:04.327Z,20.97
2017-05-04T01:49:04.971Z,21.02
2017-05-04T01:50:05.617Z,21.06
2017-05-04T01:51:06.256Z,21.00
2017-05-04T01:52:06.898Z,21.05
2017-05-04T01:53:07.540Z,20.93
2017-05-04T01:54:08.185Z,21.03
2017-05-04T01:55:08.828Z,21.07
2017-05-04T01:56:09.716Z,21.00
2017-05-04T01:57:10.361Z,21.02
2017-05-04T01:58:11.001Z,20.92
2017-05-04T01:59:11.644Z,20.99
2017-05-04T02:00:12.284Z,20.92
2017-05-04T02:01:12.930Z,20.99
2017-05-04T02:02:13.571Z,20.97
2017-05-04T02:03:14.209Z,20.97
2017-05-04T02:04:14.850Z,20.95
2017-05-04T02:05:15.695Z,20.96
2017-05-04T02:06:16.340Z,20.96
2017-05-04T02:07:16.983Z,20.96
2017-05-04T02:08:17.624Z,20.88
2017-05-04T02:09:18.262Z,20.90
2017-05-04T02:10:18.902Z,20.87
2017-05-04T02:11:19.547Z,20.84
2017-05-04T02:12:20.192Z,20.92
2017-05-04T02:13:20.985Z,20.90
2017-05-04T02:14:21.626Z,20.85
2017-05-04T02:15:22.269Z,20.96
2017-05-04T02:16:22.912Z,20.84
2017-05-04T02:17:23.556Z,20.87
2017-05-04T02:18:24.197Z,20.88
2017-05-04T02:19:24.839Z,20.84
2017-05-04T02:20:25.484Z,20.82
2017-05-04T02:21:26.323Z,20.87
2017-05-04T02:22:26.971Z,20.87
2017-05-04T02:23:27.607Z,20.87
2017-05-04T02:24:28.247Z,20.92
2017-05-04T02:25:28.887Z,20.84
2017-05-04T02:26:29.533Z,20.87
2017-05-04T02:27:30.174Z,20.87
2017-05-04T02:28:30.815Z,20.80
2017-05-04T02:29:31.606Z,20.85
2017-05-04T02:30:32.249Z,20.82
2017-05-04T02:31:32.894Z,20.84
2017-05-04T02:32:33.537Z,20.75
2017-05-04T02:33:34.178Z,20.75
2017-05-04T02:34:34.823Z,20.77
2017-05-04T02:35:35.466Z,20.80
2017-05-04T02:36:36.105Z,20.81
2017-05-04T02:37:37.044Z,20.77
2017-05-04T02:38:37.689Z,20.81
2017-05-04T02:39:38.329Z,20.69
2017-05-04T02:40:38.971Z,20.77
2017-05-04T02:41:39.613Z,20.66
2017-05-04T02:42:40.254Z,20.82
2017-05-04T02:43:40.896Z,20.77
2017-05-04T02:44:41.540Z,20.72
2017-05-04T02:45:42.183Z,20.77
2017-05-04T02:46:43.022Z,20.77
2017-05-04T02:47:43.664Z,20.78
2017-05-04T02:48:44.304Z,20.70
2017-05-04T02:49:44.945Z,20.78
2017-05-04T02:50:45.590Z,20.77
2017-05-04T02:51:46.231Z,20.78
2017-05-04T02:52:46.872Z,20.77
2017-05-04T02:53:47.512Z,20.80
2017-05-04T02:54:48.354Z,20.77
2017-05-04T02:55:48.997Z,20.75
2017-05-04T02:56:49.639Z,20.80
2017-05-04T02:57:50.279Z,20.78
2017-05-04T02:58:50.922Z,20.80
2017-05-04T02:59:51.559Z,20.69
2017-05-04T03:00:52.201Z,20.74
2017-05-04T03:01:52.844Z,20.75
2017-05-04T03:02:53.938Z,20.74
2017-05-04T03:03:54.578Z,20.77
2017-05-04T03:04:55.216Z,20.80
2017-05-04T03:05:55.857Z,20.72
2017-05-04T03:06:56.499Z,20.74
2017-05-04T03:07:57.143Z,20.69
2017-05-04T03:08:57.786Z,20.72
2017-05-04T03:09:58.429Z,20.69
2017-05-04T03:10:59.520Z,20.77
2017-05-04T03:12:00.163Z,20.74
2017-05-04T03:13:00.809Z,20.70
2017-05-04T03:14:01.451Z,20.69
2017-05-04T03:15:02.089Z,20.69
2017-05-04T03:16:02.731Z,20.63
2017-05-04T03:17:03.373Z,20.69
2017-05-04T03:18:04.014Z,20.70
2017-05-04T03:19:04.658Z,20.70
2017-05-04T03:20:05.502Z,20.66
2017-05-04T03:21:06.144Z,20.60
2017-05-04T03:22:06.786Z,20.70
2017-05-04T03:23:07.429Z,20.69
2017-05-04T03:24:08.074Z,20.67
2017-05-04T03:25:08.716Z,20.59
2017-05-04T03:26:09.354Z,20.72
2017-05-04T03:27:09.996Z,20.58
2017-05-04T03:28:10.786Z,20.66
2017-05-04T03:29:11.427Z,20.69
2017-05-04T03:30:12.069Z,20.62
2017-05-04T03:31:12.710Z,20.62
2017-05-04T03:32:13.351Z,20.67
2017-05-04T03:33:13.994Z,20.60
2017-05-04T03:34:14.642Z,20.65
2017-05-04T03:35:15.284Z,20.65
2017-05-04T03:36:16.124Z,20.65
2017-05-04T03:37:16.762Z,20.65
2017-05-04T03:38:17.406Z,20.67
2017-05-04T03:39:18.050Z,20.65
2017-05-04T03:40:18.685Z,20.65
2017-05-04T03:41:19.328Z,20.62
2017-05-04T03:42:19.967Z,20.65
2017-05-04T03:43:20.608Z,20.63
2017-05-04T03:44:21.450Z,20.62
2017-05-04T03:45:22.095Z,20.63
2017-05-04T03:46:22.735Z,20.65
2017-05-04T03:47:23.378Z,20.63
2017-05-04T03:48:24.020Z,20.60
2017-05-04T03:49:24.662Z,20.66
2017-05-04T03:50:25.332Z,20.62
2017-05-04T03:51:25.945Z,20.60
2017-05-04T03:52:26.786Z,20.58
2017-05-04T03:53:27.430Z,20.65
2017-05-04T03:54:28.070Z,20.63
2017-05-04T03:55:28.713Z,20.55
2017-05-04T03:56:29.349Z,20.65
2017-05-04T03:57:29.992Z,20.63
2017-05-04T03:58:30.632Z,20.69
2017-05-04T03:59:31.280Z,20.62
2017-05-04T04:00:31.920Z,20.62
2017-05-04T04:01:32.764Z,20.63
2017-05-04T04:02:33.405Z,20.65
2017-05-04T04:03:34.047Z,20.63
2017-05-04T04:04:34.690Z,20.56
2017-05-04T04:05:35.336Z,20.59
2017-05-04T04:06:35.976Z,20.65
2017-05-04T04:07:36.617Z,20.60
2017-05-04T04:08:37.261Z,20.62
2017-05-04T04:09:38.097Z,20.62
2017-05-04T04:10:38.739Z,20.60
2017-05-04T04:11:39.379Z,20.58
2017-05-04T04:12:40.020Z,20.58
2017-05-04T04:13:40.658Z,20.63
2017-05-04T04:14:41.301Z,20.55
2017-05-04T04:15:41.946Z,20.51
2017-05-04T04:16:42.588Z,20.58
2017-05-04T04:17:43.434Z,20.60
2017-05-04T04:18:44.073Z,20.55
2017-05-04T04:19:44.714Z,20.59
2017-05-04T04:20:45.359Z,20.58
2017-05-04T04:21:46.002Z,20.52
2017-05-04T04:22:46.641Z,20.55
2017-05-04T04:23:47.281Z,20.58
2017-05-04T04:24:47.924Z,20.51
2017-05-04T04:25:48.765Z,20.55
2017-05-04T04:26:49.414Z,20.60
2017-05-04T04:27:50.049Z,20.58
2017-05-04T04:28:50.692Z,20.52
2017-05-04T04:29:51.332Z,20.55
2017-05-04T04:30:51.976Z,20.48
2017-05-04T04:31:52.618Z,20.58
2017-05-04T04:32:53.260Z,20.55
2017-05-04T04:33:53.904Z,20.48
2017-05-04T04:34:54.994Z,20.44
2017-05-04T04:35:55.637Z,20.48
2017-05-04T04:36:56.279Z,20.47
2017-05-04T04:37:56.915Z,20.52
2017-05-04T04:38:57.558Z,20.41
2017-05-04T04:39:58.201Z,20.47
2017-05-04T04:40:58.843Z,20.48
2017-05-04T04:41:59.481Z,20.44
2017-05-04T04:43:00.423Z,20.48
2017-05-04T04:44:01.065Z,20.44
2017-05-04T04:45:01.705Z,20.43
2017-05-04T04:46:02.341Z,20.43
2017-05-04T04:47:02.984Z,20.51
2017-05-04T04:48:03.628Z,20.50
2017-05-04T04:49:04.269Z,20.48
2017-05-04T04:50:04.908Z,20.48
2017-05-04T04:51:05.899Z,20.40
2017-05-04T04:52:06.541Z,20.43
2017-05-04T04:53:07.183Z,20.43
2017-05-04T04:54:07.825Z,20.48
2017-05-04T04:55:08.465Z,20.40
2017-05-04T04:56:09.102Z,20.48
2017-05-04T04:57:09.743Z,20.41
2017-05-04T04:58:10.385Z,20.50
2017-05-04T04:59:11.328Z,20.41
2017-05-04T05:00:11.971Z,20.44
2017-05-04T05:01:12.614Z,20.48
2017-05-04T05:02:13.258Z,20.43
2017-05-04T05:03:13.899Z,20.43
2017-05-04T05:04:14.542Z,20.43
2017-05-04T05:05:15.185Z,20.50
2017-05-04T05:06:15.827Z,20.43
2017-05-04T05:07:16.918Z,20.50
2017-05-04T05:08:17.559Z,20.43
2017-05-04T05:09:18.204Z,20.41
2017-05-04T05:10:18.846Z,20.44
2017-05-04T05:11:19.487Z,20.43
2017-05-04T05:12:20.132Z,20.41
2017-05-04T05:13:20.774Z,20.44
2017-05-04T05:14:21.416Z,20.47
2017-05-04T05:15:22.057Z,20.32
2017-05-04T05:16:23.049Z,20.41
2017-05-04T05:17:23.691Z,20.34
2017-05-04T05:18:24.333Z,20.31
2017-05-04T05:19:24.974Z,20.31
2017-05-04T05:20:25.620Z,20.40
2017-05-04T05:21:26.262Z,20.37
2017-05-04T05:22:26.899Z,20.39
2017-05-04T05:23:27.540Z,20.29
2017-05-04T05:24:28.529Z,20.37
2017-05-04T05:25:29.170Z,20.31
2017-05-04T05:26:29.814Z,20.34
2017-05-04T05:27:30.457Z,20.37
2017-05-04T05:28:31.097Z,20.37
2017-05-04T05:29:31.741Z,20.32
2017-05-04T05:30:32.382Z,20.36
2017-05-04T05:31:33.025Z,20.40
2017-05-04T05:32:34.268Z,20.32
2017-05-04T05:33:34.907Z,20.31
2017-05-04T05:34:35.544Z,20.32
2017-05-04T05:35:36.187Z,20.36
2017-05-04T05:36:36.830Z,20.36
2017-05-04T05:37:37.469Z,20.34
2017-05-04T05:38:38.109Z,20.37
2017-05-04T05:39:38.751Z,20.32
2017-05-04T05:40:39.890Z,20.39
2017-05-04T05:41:40.533Z,20.40
2017-05-04T05:42:41.178Z,20.36
2017-05-04T05:43:41.820Z,20.31
2017-05-04T05:44:42.463Z,20.36
2017-05-04T05:45:43.104Z,20.34
2017-05-04T05:46:43.747Z,20.37
2017-05-04T05:47:44.390Z,20.31
2017-05-04T05:48:45.030Z,20.31
2017-05-04T05:49:46.023Z,20.39
2017-05-04T05:50:46.725Z,20.36
2017-05-04T05:51:47.368Z,20.37
2017-05-04T05:52:48.008Z,20.36
2017-05-04T05:53:48.650Z,20.26
2017-05-04T05:54:49.292Z,20.32
2017-05-04T05:55:49.939Z,20.29
2017-05-04T05:56:50.576Z,20.32
2017-05-04T05:57:51.669Z,20.29
2017-05-04T05:58:52.312Z,20.26
2017-05-04T05:59:52.954Z,20.31
2017-05-04T06:00:53.597Z,20.32
2017-05-04T06:01:54.240Z,20.26
2017-05-04T06:02:54.882Z,20.31
2017-05-04T06:03:55.523Z,20.24
2017-05-04T06:04:56.164Z,20.26
2017-05-04T06:05:57.257Z,20.22
2017-05-04T06:06:57.902Z,20.31
2017-05-04T06:07:58.538Z,20.25
2017-05-04T06:08:59.176Z,20.25
2017-05-04T06:09:59.818Z,20.26
2017-05-04T06:11:00.460Z,20.25
2017-05-04T06:12:01.106Z,20.28
2017-05-04T06:13:01.803Z,20.25
2017-05-04T06:14:02.595Z,20.28
2017-05-04T06:15:03.238Z,20.29
2017-05-04T06:16:03.882Z,20.29
2017-05-04T06:17:04.521Z,20.28
2017-05-04T06:18:05.163Z,20.25
2017-05-04T06:19:05.811Z,20.26
2017-05-04T06:20:06.450Z,20.22
2017-05-04T06:21:07.412Z,20.25
2017-05-04T06:22:08.254Z,20.19
2017-05-04T06:23:08.897Z,20.26
2017-05-04T06:24:09.537Z,20.22
2017-05-04T06:25:10.178Z,20.19
2017-05-04T06:26:10.821Z,20.19
2017-05-04T06:27:11.467Z,20.24
2017-05-04T06:28:12.108Z,20.22
2017-05-04T06:29:12.745Z,20.31
2017-05-04T06:30:13.382Z,20.18
2017-05-04T06:31:14.523Z,20.21
2017-05-04T06:32:15.165Z,20.31
2017-05-04T06:33:15.805Z,20.22
2017-05-04T06:34:16.446Z,20.29
2017-05-04T06:35:17.086Z,20.26
2017-05-04T06:36:17.726Z,20.29
2017-05-04T06:37:18.368Z,20.29
2017-05-04T06:38:19.013Z,20.25
2017-05-04T06:39:19.847Z,20.28
2017-05-04T06:40:20.486Z,20.24
2017-05-04T06:41:21.125Z,20.26
2017-05-04T06:42:21.765Z,20.29
2017-05-04T06:43:22.402Z,20.24
2017-05-04T06:44:23.046Z,20.34
2017-05-04T06:45:23.688Z,20.25
2017-05-04T06:46:24.331Z,20.34
2017-05-04T06:47:25.122Z,20.31
2017-05-04T06:48:25.765Z,20.28
2017-05-04T06:49:26.406Z,20.26
2017-05-04T06:50:27.046Z,20.28
2017-05-04T06:51:27.688Z,20.32
2017-05-04T06:52:28.330Z,20.26
2017-05-04T06:53:28.970Z,20.31
2017-05-04T06:54:29.613Z,20.29
2017-05-04T06:55:30.557Z,20.34
2017-05-04T06:56:31.199Z,20.28
2017-05-04T06:57:31.842Z,20.26
2017-05-04T06:58:32.481Z,20.29
2017-05-04T06:59:33.124Z,20.31
2017-05-04T07:00:33.767Z,20.26
2017-05-04T07:01:34.467Z,20.29
2017-05-04T07:02:35.112Z,20.28
2017-05-04T07:03:35.755Z,20.31
2017-05-04T07:04:36.599Z,20.28
2017-05-04T07:05:37.239Z,20.25
2017-05-04T07:06:37.880Z,20.26
2017-05-04T07:07:38.522Z,20.25
2017-05-04T07:08:39.159Z,20.36
2017-05-04T07:09:39.802Z,20.31
2017-05-04T07:10:40.444Z,20.29
2017-05-04T07:11:41.090Z,20.32
2017-05-04T07:12:41.876Z,20.31
2017-05-04T07:13:42.521Z,20.29
2017-05-04T07:14:43.163Z,20.37
2017-05-04T07:15:43.807Z,20.32
2017-05-04T07:16:44.446Z,20.29
2017-05-04T07:17:45.091Z,20.26
2017-05-04T07:18:45.733Z,20.34
2017-05-04T07:19:46.374Z,20.41
2017-05-04T07:20:47.217Z,20.36
2017-05-04T07:21:47.854Z,20.39
2017-05-04T07:22:48.495Z,20.32
2017-05-04T07:23:49.134Z,20.36
2017-05-04T07:24:49.772Z,20.34
2017-05-04T07:25:50.414Z,20.43
2017-05-04T07:26:51.054Z,20.37
2017-05-04T07:27:51.697Z,20.50
2017-05-04T07:28:52.486Z,20.44
2017-05-04T07:29:53.127Z,20.47
2017-05-04T07:30:53.775Z,20.50
2017-05-04T07:31:54.419Z,20.48
2017-05-04T07:32:55.062Z,20.48
2017-05-04T07:33:55.701Z,20.41
2017-05-04T07:34:56.340Z,20.41
2017-05-04T07:35:56.983Z,20.41
2017-05-04T07:36:57.923Z,20.48
2017-05-04T07:37:58.566Z,20.43
2017-05-04T07:38:59.207Z,20.44
2017-05-04T07:39:59.848Z,20.48
2017-05-04T07:41:00.496Z,20.41
2017-05-04T07:42:01.140Z,20.44
2017-05-04T07:43:01.786Z,20.44
2017-05-04T07:44:02.427Z,20.41
2017-05-04T07:45:03.068Z,20.41
2017-05-04T07:46:03.907Z,20.44
2017-05-04T07:47:04.554Z,20.47
2017-05-04T07:48:05.199Z,20.50
2017-05-04T07:49:05.841Z,20.43
2017-05-04T07:50:06.486Z,20.55
2017-05-04T07:51:07.127Z,20.50
2017-05-04T07:52:07.768Z,20.58
2017-05-04T07:53:08.410Z,20.55
2017-05-04T07:54:09.247Z,20.55
2017-05-04T07:55:09.891Z,20.52
2017-05-04T07:56:10.531Z,20.55
2017-05-04T07:57:11.175Z,20.55
2017-05-04T07:58:11.817Z,20.58
2017-05-04T07:59:12.462Z,20.59
2017-05-04T08:00:13.107Z,20.62
2017-05-04T08:01:13.751Z,20.52
2017-05-04T08:02:14.593Z,20.58
2017-05-04T08:03:15.238Z,20.65
2017-05-04T08:04:15.881Z,20.52
2017-05-04T08:05:16.522Z,20.51
2017-05-04T08:06:17.165Z,20.63
2017-05-04T08:07:17.812Z,20.62
2017-05-04T08:08:18.456Z,20.55
2017-05-04T08:09:19.092Z,20.56
2017-05-04T08:10:19.930Z,20.55
2017-05-04T08:11:20.576Z,20.56
2017-05-04T08:12:21.220Z,20.59
2017-05-04T08:13:21.863Z,20.60
2017-05-04T08:14:22.501Z,20.60
2017-05-04T08:15:23.147Z,20.63
2017-05-04T08:16:23.789Z,20.63
2017-05-04T08:17:24.431Z,20.62
2017-05-04T08:18:25.071Z,20.66
2017-05-04T08:19:25.922Z,20.63
2017-05-04T08:20:26.559Z,20.63
2017-05-04T08:21:27.202Z,20.63
2017-05-04T08:22:27.843Z,20.59
2017-05-04T08:23:28.487Z,20.67
2017-05-04T08:24:29.127Z,20.62
2017-05-04T08:25:29.772Z,20.63
2017-05-04T08:26:30.412Z,20.62
2017-05-04T08:27:31.203Z,20.62
2017-05-04T08:28:31.847Z,20.60
2017-05-04T08:29:32.487Z,20.60
2017-05-04T08:30:33.129Z,20.65
2017-05-04T08:31:33.772Z,20.63
2017-05-04T08:32:34.414Z,20.66
2017-05-04T08:33:35.054Z,20.62
2017-05-04T08:34:35.700Z,20.62
2017-05-04T08:35:36.643Z,20.74
2017-05-04T08:36:37.291Z,20.69
2017-05-04T08:37:37.940Z,20.74
2017-05-04T08:38:38.574Z,20.77
2017-05-04T08:39:39.217Z,20.72
2017-05-04T08:40:39.860Z,20.74
2017-05-04T08:41:40.503Z,20.74
2017-05-04T08:42:41.148Z,20.75
2017-05-04T08:43:41.993Z,20.70
2017-05-04T08:44:42.635Z,20.77
2017-05-04T08:45:43.277Z,20.72
2017-05-04T08:46:43.923Z,20.78
2017-05-04T08:47:44.568Z,20.74
2017-05-04T08:48:45.209Z,20.77
2017-05-04T08:49:45.850Z,20.80
2017-05-04T08:50:46.491Z,20.78
2017-05-04T08:51:47.436Z,20.77
2017-05-04T08:52:48.073Z,20.77
2017-05-04T08:53:48.716Z,20.82
2017-05-04T08:54:49.355Z,20.75
2017-05-04T08:55:49.998Z,20.90
2017-05-04T08:56:50.649Z,20.92
2017-05-04T08:57:51.284Z,20.82
2017-05-04T08:58:51.928Z,20.87
2017-05-04T08:59:52.571Z,20.82
2017-05-04T09:00:53.363Z,20.84
2017-05-04T09:01:54.021Z,20.88
2017-05-04T09:02:54.650Z,20.88
2017-05-04T09:03:55.292Z,20.92
2017-05-04T09:04:55.935Z,20.90
2017-05-04T09:05:56.581Z,20.90
2017-05-04T09:06:57.225Z,20.85
2017-05-04T09:07:57.871Z,20.93
2017-05-04T09:08:58.870Z,20.92
2017-05-04T09:09:59.516Z,20.92
2017-05-04T09:11:00.153Z,20.96
2017-05-04T09:12:00.798Z,20.90
2017-05-04T09:13:01.444Z,20.92
2017-05-04T09:14:02.088Z,20.85
2017-05-04T09:15:02.728Z,20.85
2017-05-04T09:16:03.363Z,20.82
2017-05-04T09:17:04.302Z,20.85
2017-05-04T09:18:04.948Z,20.82
2017-05-04T09:19:05.591Z,20.97
2017-05-04T09:20:06.233Z,20.84
2017-05-04T09:21:06.873Z,20.93
2017-05-04T09:22:07.517Z,20.97
2017-05-04T09:23:08.220Z,20.96
2017-05-04T09:24:08.856Z,20.85
2017-05-04T09:25:09.696Z,20.97
2017-05-04T09:26:10.344Z,20.96
2017-05-04T09:27:10.981Z,20.97
2017-05-04T09:28:11.622Z,20.93
2017-05-04T09:29:12.263Z,20.99
2017-05-04T09:30:12.907Z,20.99
2017-05-04T09:31:13.549Z,21.00
2017-05-04T09:32:14.194Z,20.93
2017-05-04T09:33:14.837Z,20.96
2017-05-04T09:34:15.633Z,20.99
2017-05-04T09:35:16.277Z,20.97
2017-05-04T09:36:16.916Z,20.99
2017-05-04T09:37:17.560Z,20.96
2017-05-04T09:38:18.205Z,20.95
2017-05-04T09:39:18.847Z,20.97
2017-05-04T09:40:19.493Z,20.97
2017-05-04T09:41:20.456Z,20.96
2017-05-04T09:42:21.302Z,20.96
2017-05-04T09:43:21.943Z,21.02
2017-05-04T09:44:22.584Z,20.96
2017-05-04T09:45:23.224Z,20.97
2017-05-04T09:46:23.867Z,21.00
2017-05-04T09:47:24.512Z,20.99
2017-05-04T09:48:25.156Z,21.06
2017-05-04T09:49:25.799Z,20.95
2017-05-04T09:50:26.638Z,21.03
2017-05-04T09:51:27.285Z,21.06
2017-05-04T09:52:27.930Z,21.03
2017-05-04T09:53:28.575Z,20.99
2017-05-04T09:54:29.219Z,20.88
2017-05-04T09:55:29.860Z,20.97
2017-05-04T09:56:30.506Z,21.06
2017-05-04T09:57:31.149Z,21.05
2017-05-04T09:58:31.888Z,21.05
2017-05-04T09:59:32.530Z,21.02
2017-05-04T10:00:33.173Z,21.05
2017-05-04T10:01:33.815Z,21.02
2017-05-04T10:02:34.458Z,21.03
2017-05-04T10:03:35.097Z,21.03
2017-05-04T10:04:35.741Z,21.02
2017-05-04T10:05:36.389Z,21.03
2017-05-04T10:06:37.226Z,20.95
2017-05-04T10:07:37.872Z,21.02
2017-05-04T10:08:38.521Z,21.07
2017-05-04T10:09:39.160Z,21.07
2017-05-04T10:10:39.809Z,21.06
2017-05-04T10:11:40.446Z,21.06
2017-05-04T10:12:41.084Z,21.06
2017-05-04T10:13:41.727Z,21.09
2017-05-04T10:14:42.373Z,21.06
2017-05-04T10:15:43.217Z,21.09
2017-05-04T10:16:43.859Z,21.09
2017-05-04T10:17:44.502Z,21.09
2017-05-04T10:18:45.142Z,21.12
2017-05-04T10:19:45.784Z,21.15
2017-05-04T10:20:46.429Z,21.11
2017-05-04T10:21:47.074Z,21.15
2017-05-04T10:22:47.717Z,21.12
2017-05-04T10:23:48.563Z,21.14
2017-05-04T10:24:49.211Z,21.20
2017-05-04T10:25:49.854Z,21.39
2017-05-04T10:26:50.499Z,21.52
2017-05-04T10:27:51.144Z,21.60
2017-05-04T10:28:51.793Z,21.69
2017-05-04T10:29:52.441Z,21.77
2017-05-04T10:30:53.091Z,21.87
2017-05-04T10:31:53.889Z,21.92
2017-05-04T10:32:54.538Z,21.99
2017-05-04T10:33:55.184Z,22.10
2017-05-04T10:34:55.830Z,22.13
2017-05-04T10:35:56.478Z,22.14
2017-05-04T10:36:57.126Z,22.14
2017-05-04T10:37:57.774Z,22.14
2017-05-04T10:38:58.417Z,22.20
2017-05-04T10:39:59.266Z,22.25
2017-05-04T10:40:59.918Z,22.26
2017-05-04T10:42:00.568Z,22.30
2017-05-04T10:43:01.215Z,22.25
2017-05-04T10:44:01.860Z,22.35
2017-05-04T10:45:02.510Z,22.33
2017-05-04T10:46:03.154Z,22.47
2017-05-04T10:47:03.801Z,22.41
2017-05-04T10:48:04.450Z,22.47
2017-05-04T10:49:05.298Z,22.47
2017-05-04T10:50:05.945Z,22.51
2017-05-04T10:51:06.590Z,22.50
2017-05-04T10:52:07.235Z,22.53
2017-05-04T10:53:07.886Z,22.63
2017-05-04T10:54:08.535Z,22.59
2017-05-04T10:55:09.192Z,22.59
2017-05-04T10:56:09.836Z,22.68
2017-05-04T10:57:10.836Z,22.75
2017-05-04T10:58:11.485Z,22.63
2017-05-04T10:59:12.134Z,22.69
2017-05-04T11:00:12.783Z,22.68
2017-05-04T11:01:13.431Z,22.68
2017-05-04T11:02:14.082Z,22.72
2017-05-04T11:03:14.730Z,22.76
2017-05-04T11:04:15.382Z,22.69
2017-05-04T11:05:16.288Z,22.59
2017-05-04T11:06:16.937Z,22.72
2017-05-04T11:07:17.589Z,22.68
2017-05-04T11:08:18.237Z,22.66
2017-05-04T11:09:18.887Z,22.65
2017-05-04T11:10:19.541Z,22.59
2017-05-04T11:11:20.246Z,22.65
2017-05-04T11:12:20.896Z,22.76
2017-05-04T11:13:21.747Z,22.72
2017-05-04T11:14:22.399Z,22.70
2017-05-04T11:15:23.049Z,22.75
2017-05-04T11:16:23.700Z,22.78
2017-05-04T11:17:24.351Z,22.80
2017-05-04T11:18:25.001Z,22.83
2017-05-04T11:19:25.649Z,22.85
2017-05-04T11:20:26.304Z,22.90
2017-05-04T11:21:27.158Z,23.02
2017-05-04T11:22:27.817Z,23.02
2017-05-04T11:23:28.461Z,22.98
2017-05-04T11:24:29.110Z,23.05
2017-05-04T11:25:29.759Z,23.12
2017-05-04T11:26:30.410Z,23.09
2017-05-04T11:27:31.064Z,23.18
2017-05-04T11:28:31.709Z,23.18
2017-05-04T11:29:32.362Z,23.20
2017-05-04T11:30:33.268Z,23.18
2017-05-04T11:31:33.920Z,23.28
2017-05-04T11:32:34.576Z,23.23
2017-05-04T11:33:35.231Z,23.18
2017-05-04T11:34:35.886Z,23.24
2017-05-04T11:35:36.538Z,23.25
2017-05-04T11:36:37.190Z,23.27
2017-05-04T11:37:37.845Z,23.23
2017-05-04T11:38:38.843Z,23.32
2017-05-04T11:39:39.495Z,23.31
2017-05-04T11:40:40.146Z,23.27
2017-05-04T11:41:40.798Z,23.34
2017-05-04T11:42:41.455Z,23.34
2017-05-04T11:43:42.430Z,23.39
2017-05-04T11:44:43.087Z,23.41
2017-05-04T11:45:43.736Z,23.44
2017-05-04T11:46:44.542Z,23.46
2017-05-04T11:47:45.196Z,23.50
2017-05-04T11:48:45.851Z,23.55
2017-05-04T11:49:46.506Z,23.59
2017-05-04T11:50:47.162Z,23.62
2017-05-04T11:51:47.820Z,23.76
2017-05-04T11:52:48.474Z,23.73
2017-05-04T11:53:49.132Z,23.71
2017-05-04T11:54:50.036Z,23.78
2017-05-04T11:55:50.697Z,23.86
2017-05-04T11:56:51.349Z,23.93
2017-05-04T11:57:52.005Z,23.95
2017-05-04T11:58:52.658Z,23.96
2017-05-04T11:59:53.309Z,24.10
2017-05-04T12:00:53.966Z,24.11
2017-05-04T12:01:54.622Z,24.11
2017-05-04T12:02:55.279Z,24.24
2017-05-04T12:03:56.136Z,24.28
2017-05-04T12:04:56.792Z,24.24
2017-05-04T12:05:57.446Z,24.40
2017-05-04T12:06:58.102Z,24.39
2017-05-04T12:07:58.762Z,24.32
2017-05-04T12:08:59.417Z,24.39
2017-05-04T12:10:00.076Z,24.42
2017-05-04T12:11:00.726Z,24.51
2017-05-04T12:12:01.584Z,24.45
2017-05-04T12:13:02.237Z,24.57
2017-05-04T12:14:02.894Z,24.57
2017-05-04T12:15:03.552Z,24.61
2017-05-04T12:16:04.210Z,24.58
2017-05-04T12:17:04.867Z,24.74
2017-05-04T12:18:05.519Z,24.68
2017-05-04T12:19:06.174Z,24.73
2017-05-04T12:20:07.133Z,24.76
2017-05-04T12:21:07.787Z,24.76
2017-05-04T12:22:08.443Z,24.86
2017-05-04T12:23:09.100Z,25.01
2017-05-04T12:24:09.754Z,25.08
2017-05-04T12:25:10.411Z,25.16
2017-05-04T12:26:11.070Z,25.16
2017-05-04T12:27:11.726Z,25.22
2017-05-04T12:28:12.683Z,25.40
2017-05-04T12:29:13.334Z,25.38
2017-05-04T12:30:13.990Z,25.40
2017-05-04T12:31:14.649Z,25.51
2017-05-04T12:32:15.307Z,25.65
2017-05-04T12:33:15.963Z,25.75
2017-05-04T12:34:16.619Z,25.84
2017-05-04T12:35:17.272Z,25.80
2017-05-04T12:36:18.079Z,26.03
2017-05-04T12:37:18.737Z,26.07
2017-05-04T12:38:19.394Z,26.05
2017-05-04T12:39:20.004Z,26.07
2017-05-04T12:40:20.656Z,26.26
2017-05-04T12:41:21.309Z,26.33
2017-05-04T12:42:21.963Z,26.28
2017-05-04T12:43:22.624Z,26.41
2017-05-04T12:44:23.280Z,26.47
2017-05-04T12:45:24.138Z,26.51
2017-05-04T12:46:24.804Z,26.55
2017-05-04T12:47:25.461Z,26.58
2017-05-04T12:48:26.069Z,26.60
2017-05-04T12:49:26.731Z,26.63
2017-05-04T12:50:27.390Z,26.68
2017-05-04T12:51:28.043Z,26.85
2017-05-04T12:52:28.697Z,26.96
2017-05-04T12:53:29.552Z,26.97
2017-05-04T12:54:30.212Z,27.02
2017-05-04T12:55:30.873Z,26.88
2017-05-04T12:56:31.527Z,27.07
2017-05-04T12:57:32.185Z,27.08
2017-05-04T12:58:32.844Z,27.12
2017-05-04T12:59:33.503Z,27.18
2017-05-04T13:00:34.164Z,27.26
2017-05-04T13:01:35.021Z,27.29